Strona główna
METAR-TAF:

METAR-TAF

Lotnisko :

Port lotniczy Curaçao

Curaçao, Antyle Holenderskie

Szerokość geograficzna: 12-12N, Długość geograficzna: 068-58W, wysokość: 9 m

Aktualna obserwacja pogody

Raport powstał 29 minut temu, godzina 07:00 UTC
Wiatr 11 kt od południowy wschód
Temperatura 27°C
Wilgotność 79%
Ciśnienie 1012 hPa
Widzialność 10 km lub więcej

METAR: TNCC 200700Z AUTO 13011KT 9999 NCD 27/23 Q1012 NOSIG

czas: 03:29 (07:29 UTC)

Prognoza

Raport powstał 3 godziny i 59 minut temu, godzina 03:30 UTC
Prognoza ważna od 20 godzina 06 UTC do 21 godzina 06 UTC
Wiatr 10 kt od południowy wschód
Widzialność 10 km lub więcej
Mało chmury na wysokości 1800 ft
Przejściowo
od 20 godzina 06 UTC do 20 godzina 12 UTC
Przerywane chmury na wysokości 1400 ft

TAF: TNCC 200330Z 2006/2106 13010KT 9999 FEW018 TEMPO 2006/2012 BKN014

Obserwacja i prognoza pogody dla ponad 4000 lotnisk (raport METAR i TAF).

Dostępne stacje oznaczono żółtymi i czerwonymi punktami na mapie.

Najedź kursorem aby zobaczyć nazwę stacji.

Kliknij aby zobaczyć obserwacje i prognozy pogody.

Aby zmienić mapę: kliknij na zielony przycisk z czarnym krzyżykiem, aby powiększyć; na zielony przycisk z myślnikiem, aby pomniejszyć; na zielone strzałki, aby przejść do map sąsiednich.


METAR-TAF: